Time;durP1;ratioP1;P1;durP2;ratioP2;P2;SDS_P1;SDS_P2;PMS_P1;PMS_P2;Temp;Humidity;BMP_temperature;BMP_pressure;BME280_temperature;BME280_humidity;BME280_pressure;Samples;Min_cycle;Max_cycle;Signal;HPM_P1;HPM_P2
2022/07/20 00:00:39;;;;;;;9.00;3.13;;;30.30;56.40;;;;;;5049264;28;20029;-65
2022/07/20 00:03:06;;;;;;;4.97;2.92;;;30.30;56.10;;;;;;5042275;28;20025;-64
2022/07/20 00:05:32;;;;;;;13.57;3.33;;;30.30;55.50;;;;;;5048022;28;20083;-64
2022/07/20 00:07:58;;;;;;;14.15;2.80;;;30.20;54.90;;;;;;5043371;28;20055;-64
2022/07/20 00:13:08;;;;;;;6.65;3.08;;;30.10;54.40;;;;;;5051208;28;20033;-64
2022/07/20 00:15:33;;;;;;;7.95;2.80;;;30.10;54.00;;;;;;5050622;28;20029;-64
2022/07/20 00:17:59;;;;;;;5.45;2.95;;;30.10;53.90;;;;;;5051285;28;20036;-64
2022/07/20 00:20:25;;;;;;;9.35;3.03;;;30.00;53.80;;;;;;5046037;28;20033;-64
2022/07/20 00:22:51;;;;;;;5.53;2.50;;;29.90;53.40;;;;;;5044253;28;20025;-64
2022/07/20 00:25:17;;;;;;;4.45;2.55;;;29.90;53.60;;;;;;5032716;28;20037;-64
2022/07/20 00:27:42;;;;;;;10.02;2.50;;;29.90;53.50;;;;;;5044237;28;20045;-64
2022/07/20 00:30:09;;;;;;;8.10;3.30;;;29.80;54.00;;;;;;5045762;28;20032;-64
2022/07/20 00:32:39;;;;;;;12.73;2.72;;;29.80;53.80;;;;;;5043569;28;20536;-64
2022/07/20 00:35:09;;;;;;;6.15;2.40;;;29.80;53.40;;;;;;5037637;28;20021;-64
2022/07/20 00:37:35;;;;;;;5.82;2.60;;;29.70;52.90;;;;;;5051403;28;20072;-64
2022/07/20 00:40:00;;;;;;;8.07;2.50;;;29.70;53.00;;;;;;5036933;28;20068;-64
2022/07/20 00:42:26;;;;;;;6.80;3.13;;;29.70;52.90;;;;;;5051232;28;20036;-64
2022/07/20 00:44:52;;;;;;;4.03;2.30;;;29.70;52.70;;;;;;5050464;28;20033;-64
2022/07/20 00:47:18;;;;;;;4.50;2.40;;;29.60;52.70;;;;;;5050293;28;20116;-64
2022/07/20 00:49:44;;;;;;;7.95;2.45;;;29.60;52.80;;;;;;5044821;28;20176;-64
2022/07/20 00:52:09;;;;;;;9.45;2.78;;;29.60;52.60;;;;;;5043922;28;20037;-64
2022/07/20 00:54:35;;;;;;;9.23;2.65;;;29.50;52.40;;;;;;5049917;28;20063;-64
2022/07/20 00:57:02;;;;;;;7.30;2.90;;;29.50;52.10;;;;;;5051368;28;20032;-64
2022/07/20 00:59:27;;;;;;;7.93;2.78;;;29.40;52.00;;;;;;5050293;28;20036;-64
2022/07/20 01:01:53;;;;;;;11.90;2.65;;;29.40;52.10;;;;;;5050736;28;20033;-64
2022/07/20 01:04:19;;;;;;;10.32;2.70;;;29.30;52.10;;;;;;5050238;28;20055;-64
2022/07/20 01:06:45;;;;;;;4.68;2.60;;;29.40;52.10;;;;;;5050243;28;20040;-64
2022/07/20 01:09:11;;;;;;;12.38;2.58;;;29.30;51.90;;;;;;5049606;28;20094;-64
2022/07/20 01:11:36;;;;;;;7.95;2.90;;;29.30;51.90;;;;;;5050319;28;20338;-64
2022/07/20 01:14:04;;;;;;;7.93;2.88;;;29.20;51.80;;;;;;5049232;28;20568;-64
2022/07/20 01:16:30;;;;;;;4.43;2.15;;;29.20;52.20;;;;;;5055060;28;20400;-64
2022/07/20 01:18:56;;;;;;;5.40;2.65;;;29.20;52.20;;;;;;5054778;28;20063;-64
2022/07/20 01:21:21;;;;;;;6.13;2.35;;;29.20;52.30;;;;;;5053868;28;20488;-64
2022/07/20 01:23:47;;;;;;;7.35;2.63;;;29.10;52.20;;;;;;5048200;28;20444;-64
2022/07/20 01:26:17;;;;;;;16.23;3.20;;;29.10;52.30;;;;;;5035214;28;20112;-64
2022/07/20 01:28:43;;;;;;;11.70;3.13;;;29.10;52.50;;;;;;5041789;28;20041;-64
2022/07/20 01:31:08;;;;;;;4.15;2.30;;;29.00;52.40;;;;;;5054263;28;20087;-64
2022/07/20 01:33:34;;;;;;;5.70;2.88;;;29.00;52.40;;;;;;5035778;28;20116;-64
2022/07/20 01:36:00;;;;;;;8.85;2.60;;;29.00;52.90;;;;;;5048076;28;20124;-65
2022/07/20 01:38:25;;;;;;;7.10;3.13;;;28.90;52.70;;;;;;5042271;28;20033;-64
2022/07/20 01:40:51;;;;;;;14.35;2.72;;;28.90;52.70;;;;;;5053955;28;20037;-64
2022/07/20 01:43:17;;;;;;;6.35;2.58;;;28.90;52.70;;;;;;5053896;28;20021;-64
2022/07/20 01:45:42;;;;;;;7.53;2.78;;;28.80;52.60;;;;;;5052919;28;20455;-64
2022/07/20 01:48:08;;;;;;;6.38;2.92;;;28.80;52.60;;;;;;5053889;28;20058;-64
2022/07/20 01:50:34;;;;;;;8.15;2.78;;;28.70;52.40;;;;;;5053468;28;20170;-64
2022/07/20 01:53:00;;;;;;;7.25;2.83;;;28.80;52.60;;;;;;5054226;28;20033;-64
2022/07/20 01:55:26;;;;;;;5.38;2.90;;;28.70;52.60;;;;;;5042477;28;20033;-64
2022/07/20 01:57:51;;;;;;;6.95;2.70;;;28.70;52.60;;;;;;5035344;28;20380;-64
2022/07/20 02:00:17;;;;;;;9.00;2.53;;;28.60;52.70;;;;;;5037094;28;20033;-64
2022/07/20 02:02:43;;;;;;;10.40;2.65;;;28.60;53.40;;;;;;5047893;28;20045;-64
2022/07/20 02:05:09;;;;;;;7.00;2.60;;;28.60;52.80;;;;;;5039677;28;20021;-64
2022/07/20 02:07:36;;;;;;;11.90;2.90;;;28.50;52.60;;;;;;5035545;28;20050;-64
2022/07/20 02:10:05;;;;;;;10.32;3.15;;;28.50;52.60;;;;;;5038018;28;20025;-64
2022/07/20 02:12:31;;;;;;;7.38;2.58;;;28.50;53.00;;;;;;5051268;28;20102;-64
2022/07/20 02:14:56;;;;;;;12.88;3.40;;;28.50;53.40;;;;;;5042228;28;20033;-64
2022/07/20 02:17:22;;;;;;;5.03;2.85;;;28.40;53.50;;;;;;5047164;28;20031;-64
2022/07/20 02:19:47;;;;;;;8.23;2.97;;;28.40;54.10;;;;;;5046530;28;20103;-64
2022/07/20 02:22:13;;;;;;;5.93;2.90;;;28.40;54.20;;;;;;5048469;28;20365;-64
2022/07/20 02:24:39;;;;;;;5.78;2.90;;;28.40;54.30;;;;;;5041973;28;20033;-64
2022/07/20 02:27:05;;;;;;;7.72;2.72;;;28.40;54.20;;;;;;5052122;28;20115;-65
2022/07/20 02:29:30;;;;;;;7.25;2.67;;;28.40;54.00;;;;;;5053765;28;20486;-64
2022/07/20 02:31:56;;;;;;;16.00;2.95;;;28.30;54.30;;;;;;5038161;28;20159;-64
2022/07/20 02:34:21;;;;;;;9.30;3.17;;;28.20;54.20;;;;;;5042569;28;20063;-64
2022/07/20 02:36:47;;;;;;;7.07;2.70;;;28.20;54.30;;;;;;5041193;28;21334;-65
2022/07/20 02:39:13;;;;;;;12.05;2.95;;;28.20;54.50;;;;;;5044522;28;20028;-64
2022/07/20 02:41:38;;;;;;;9.52;2.90;;;28.20;54.60;;;;;;5033804;28;20026;-64
2022/07/20 02:44:04;;;;;;;6.85;2.55;;;28.10;54.50;;;;;;5033367;28;20025;-64
2022/07/20 02:46:30;;;;;;;12.20;3.20;;;28.10;54.60;;;;;;5050229;28;20078;-64
2022/07/20 02:48:55;;;;;;;8.05;2.95;;;28.10;55.50;;;;;;5053989;28;20025;-64
2022/07/20 02:51:21;;;;;;;9.13;2.78;;;28.10;56.30;;;;;;5054205;28;20445;-64
2022/07/20 02:53:47;;;;;;;7.50;3.13;;;28.00;55.70;;;;;;5053712;28;20083;-64
2022/07/20 02:56:12;;;;;;;4.43;3.10;;;28.00;56.00;;;;;;5053817;28;20025;-64
2022/07/20 02:58:38;;;;;;;6.85;2.90;;;28.00;55.60;;;;;;5044057;28;20038;-64
2022/07/20 03:01:04;;;;;;;7.70;3.33;;;27.90;55.20;;;;;;5050002;28;20119;-64
2022/07/20 03:03:29;;;;;;;7.40;2.80;;;27.90;55.50;;;;;;5054487;28;20029;-64
2022/07/20 03:05:55;;;;;;;16.60;3.17;;;27.90;55.90;;;;;;5040478;28;20079;-64
2022/07/20 03:08:21;;;;;;;5.60;2.85;;;27.80;55.80;;;;;;5053220;28;20041;-64
2022/07/20 03:10:47;;;;;;;12.18;2.90;;;27.80;55.70;;;;;;5053249;28;20029;-64
2022/07/20 03:13:12;;;;;;;11.40;3.33;;;27.80;56.00;;;;;;5053810;28;20048;-64
2022/07/20 03:15:38;;;;;;;5.05;2.65;;;27.80;56.80;;;;;;5040116;28;20487;-64
2022/07/20 03:18:04;;;;;;;10.63;3.17;;;27.70;57.50;;;;;;5053239;28;20391;-64
2022/07/20 03:20:34;;;;;;;9.82;3.20;;;27.70;58.00;;;;;;5053546;28;20170;-64
2022/07/20 03:23:01;;;;;;;6.03;2.80;;;27.70;57.40;;;;;;5041606;28;20041;-64
2022/07/20 03:25:27;;;;;;;5.70;2.80;;;27.60;57.30;;;;;;5053236;28;20431;-64
2022/07/20 03:27:57;;;;;;;8.23;3.20;;;27.60;57.20;;;;;;5045855;28;20045;-64
2022/07/20 03:30:23;;;;;;;5.72;3.20;;;27.60;58.00;;;;;;5034236;28;20499;-65
2022/07/20 03:32:49;;;;;;;14.23;3.13;;;27.50;58.00;;;;;;5042360;28;20079;-64
2022/07/20 03:35:16;;;;;;;4.20;2.20;;;27.50;59.00;;;;;;5052896;28;20056;-64
2022/07/20 03:37:42;;;;;;;5.90;2.50;;;27.50;60.10;;;;;;5053285;28;20478;-64
2022/07/20 03:40:08;;;;;;;6.45;2.47;;;27.50;60.70;;;;;;5052531;28;20033;-64
2022/07/20 03:42:34;;;;;;;6.78;2.63;;;27.40;60.30;;;;;;5053240;28;20040;-64
2022/07/20 03:45:01;;;;;;;8.15;2.80;;;27.40;60.50;;;;;;5053075;28;20033;-64
2022/07/20 03:47:26;;;;;;;8.05;2.97;;;27.40;60.10;;;;;;5053488;28;20400;-64
2022/07/20 03:49:52;;;;;;;6.57;2.90;;;27.40;59.90;;;;;;5037519;28;20029;-65
2022/07/20 03:52:19;;;;;;;5.40;2.60;;;27.40;59.90;;;;;;5046883;28;20044;-64
2022/07/20 03:54:44;;;;;;;7.57;3.00;;;27.40;59.70;;;;;;5053759;28;20033;-63
2022/07/20 03:57:11;;;;;;;5.75;2.72;;;27.40;59.70;;;;;;5050858;28;20143;-64
2022/07/20 03:59:36;;;;;;;5.05;2.65;;;27.40;60.40;;;;;;5041457;28;20037;-67
2022/07/20 04:02:03;;;;;;;7.45;2.70;;;27.30;59.40;;;;;;5038494;28;20029;-65
2022/07/20 04:04:29;;;;;;;11.73;2.85;;;27.30;59.70;;;;;;5041268;28;20032;-65
2022/07/20 04:06:55;;;;;;;12.93;3.42;;;27.30;59.10;;;;;;5051927;28;20051;-65
2022/07/20 04:12:07;;;;;;;9.98;2.83;;;27.20;57.70;;;;;;5046823;28;20095;-65
2022/07/20 04:14:34;;;;;;;5.45;3.25;;;27.20;57.40;;;;;;5034689;28;20048;-65
2022/07/20 04:17:00;;;;;;;9.70;3.00;;;27.10;57.10;;;;;;5038346;28;20033;-65
2022/07/20 04:19:25;;;;;;;8.13;3.20;;;27.20;57.20;;;;;;5051760;28;20086;-65
2022/07/20 04:21:55;;;;;;;9.57;3.35;;;27.10;57.10;;;;;;5048817;28;20447;-65
2022/07/20 04:24:21;;;;;;;9.15;2.95;;;27.10;57.10;;;;;;5051092;28;20049;-65
2022/07/20 04:26:47;;;;;;;16.65;3.78;;;27.10;57.50;;;;;;5049018;28;20041;-65
2022/07/20 04:29:12;;;;;;;7.72;3.05;;;27.00;57.70;;;;;;5050799;28;20035;-65
2022/07/20 04:31:38;;;;;;;10.82;2.75;;;27.00;58.00;;;;;;5046620;28;20025;-65
2022/07/20 04:34:03;;;;;;;15.52;3.50;;;27.00;58.60;;;;;;5043592;28;20041;-65
2022/07/20 04:36:29;;;;;;;9.93;3.17;;;27.00;58.30;;;;;;5050517;28;20021;-65
2022/07/20 04:38:55;;;;;;;9.43;2.97;;;26.90;58.00;;;;;;5050135;28;20029;-65
2022/07/20 04:41:20;;;;;;;7.22;3.20;;;26.90;58.00;;;;;;5045063;28;20104;-65
2022/07/20 04:43:46;;;;;;;5.80;2.90;;;26.90;58.30;;;;;;5049850;28;20025;-65
2022/07/20 04:46:12;;;;;;;4.47;2.30;;;26.90;58.90;;;;;;5047200;28;20356;-65
2022/07/20 04:48:38;;;;;;;11.48;3.28;;;26.80;60.70;;;;;;5051252;28;20553;-65
2022/07/20 04:51:03;;;;;;;8.52;2.92;;;26.80;59.80;;;;;;5044815;28;20025;-64
2022/07/20 04:53:29;;;;;;;5.90;2.55;;;26.80;59.40;;;;;;5049202;28;20441;-65
2022/07/20 04:55:55;;;;;;;10.70;2.90;;;26.80;59.30;;;;;;5049246;28;20120;-65
2022/07/20 04:58:20;;;;;;;9.85;3.33;;;26.80;58.90;;;;;;5046886;28;20472;-65
2022/07/20 05:00:46;;;;;;;3.63;2.70;;;26.80;58.80;;;;;;5048330;28;20586;-64
2022/07/20 05:03:11;;;;;;;9.10;2.90;;;26.80;58.60;;;;;;5049205;28;20029;-65
2022/07/20 05:05:37;;;;;;;6.18;3.03;;;26.80;58.70;;;;;;5046226;28;20540;-65
2022/07/20 05:08:03;;;;;;;6.38;2.83;;;26.70;59.00;;;;;;5048969;28;20057;-64
2022/07/20 05:10:30;;;;;;;8.52;3.47;;;26.80;59.00;;;;;;5034900;28;20029;-65
2022/07/20 05:12:55;;;;;;;11.45;2.80;;;26.70;58.70;;;;;;5048276;28;20163;-67
2022/07/20 05:15:23;;;;;;;13.05;3.28;;;26.70;59.30;;;;;;5048015;28;20104;-65
2022/07/20 05:17:52;;;;;;;6.38;2.83;;;26.70;59.40;;;;;;5039550;28;20079;-65
2022/07/20 05:20:18;;;;;;;8.23;2.95;;;26.80;59.50;;;;;;5038132;28;20435;-65
2022/07/20 05:22:44;;;;;;;6.47;2.80;;;26.70;59.60;;;;;;5048529;28;20020;-65
2022/07/20 05:25:09;;;;;;;6.88;2.90;;;26.70;59.50;;;;;;5042574;28;20369;-65
2022/07/20 05:27:35;;;;;;;6.38;2.97;;;26.70;59.70;;;;;;5050641;28;20480;-65
2022/07/20 05:30:01;;;;;;;10.77;3.03;;;26.70;59.70;;;;;;5038786;28;20029;-65
2022/07/20 05:32:26;;;;;;;5.43;3.00;;;26.70;59.70;;;;;;5048040;28;20414;-65
2022/07/20 05:34:54;;;;;;;10.63;2.92;;;26.70;59.90;;;;;;5044771;28;20052;-64
2022/07/20 05:37:20;;;;;;;9.82;3.03;;;26.70;60.10;;;;;;5047782;28;20629;-64
2022/07/20 05:39:45;;;;;;;7.75;2.75;;;26.70;60.20;;;;;;5044609;28;20033;-64
2022/07/20 05:42:11;;;;;;;12.13;3.50;;;26.70;60.00;;;;;;5046324;28;20039;-64
2022/07/20 05:44:37;;;;;;;24.17;3.75;;;26.70;60.00;;;;;;5044831;28;20515;-63
2022/07/20 05:47:06;;;;;;;23.73;3.40;;;26.70;60.50;;;;;;5019810;28;20106;-65
2022/07/20 05:49:33;;;;;;;20.83;3.85;;;26.70;60.70;;;;;;5046192;28;20095;-65
2022/07/20 05:51:59;;;;;;;26.05;4.07;;;26.70;60.50;;;;;;5047203;28;20375;-65
2022/07/20 05:54:26;;;;;;;32.22;3.50;;;26.80;60.40;;;;;;5042434;28;20030;-65
2022/07/20 05:56:52;;;;;;;30.77;3.80;;;26.80;60.40;;;;;;5046429;28;20031;-65
2022/07/20 05:59:17;;;;;;;11.20;3.45;;;26.80;60.40;;;;;;5037439;28;20367;-65
2022/07/20 06:01:44;;;;;;;11.07;3.30;;;26.80;60.40;;;;;;5049820;28;20532;-65
2022/07/20 06:04:14;;;;;;;15.65;3.45;;;26.90;60.40;;;;;;5049272;28;20172;-66
2022/07/20 06:06:40;;;;;;;26.92;3.95;;;26.80;60.60;;;;;;5050898;28;20029;-65
2022/07/20 06:09:07;;;;;;;23.85;3.53;;;26.90;60.60;;;;;;5049812;28;20391;-65
2022/07/20 06:11:34;;;;;;;12.63;3.67;;;26.90;60.30;;;;;;5050616;28;20036;-65
2022/07/20 06:14:00;;;;;;;18.17;4.47;;;26.90;60.20;;;;;;5049401;28;20115;-65
2022/07/20 06:16:26;;;;;;;7.07;2.80;;;26.90;60.60;;;;;;5050869;28;20024;-65
2022/07/20 06:18:52;;;;;;;14.70;3.40;;;26.90;60.70;;;;;;5048981;28;20021;-65
2022/07/20 06:21:18;;;;;;;7.35;3.00;;;27.00;61.50;;;;;;5050552;28;20025;-65
2022/07/20 06:23:44;;;;;;;8.00;3.00;;;27.00;61.50;;;;;;5050587;28;20032;-64
2022/07/20 06:26:10;;;;;;;12.55;4.50;;;27.00;61.50;;;;;;5052256;28;20025;-65
2022/07/20 06:28:36;;;;;;;4.70;2.72;;;27.00;61.60;;;;;;5048998;28;20041;-65
2022/07/20 06:31:03;;;;;;;5.95;3.03;;;27.00;61.70;;;;;;5049338;28;20415;-64
2022/07/20 06:33:28;;;;;;;17.30;3.50;;;27.00;61.80;;;;;;5048353;28;20129;-66
2022/07/20 06:35:54;;;;;;;23.60;3.60;;;27.10;61.70;;;;;;5051269;28;20454;-65
2022/07/20 06:38:20;;;;;;;15.30;3.72;;;27.10;62.10;;;;;;5050370;28;20035;-65
2022/07/20 06:40:45;;;;;;;11.88;3.00;;;27.10;61.90;;;;;;5051186;28;20029;-65
2022/07/20 06:43:11;;;;;;;24.65;4.13;;;27.10;61.80;;;;;;5049528;28;20148;-65
2022/07/20 06:45:37;;;;;;;15.20;3.30;;;27.10;61.90;;;;;;5045453;28;20714;-65
2022/07/20 06:48:03;;;;;;;21.33;3.22;;;27.10;62.00;;;;;;5046401;28;20078;-67
2022/07/20 06:50:29;;;;;;;7.93;2.95;;;27.10;62.00;;;;;;5050366;28;20064;-66
2022/07/20 06:52:54;;;;;;;7.85;3.00;;;27.10;61.90;;;;;;5048592;28;20143;-65
2022/07/20 06:55:20;;;;;;;9.77;3.20;;;27.10;61.70;;;;;;5049943;28;20476;-66
2022/07/20 06:57:46;;;;;;;9.77;3.10;;;27.20;61.90;;;;;;5049557;28;20480;-66
2022/07/20 07:00:14;;;;;;;7.47;3.20;;;27.20;61.60;;;;;;5047816;28;20131;-65
2022/07/20 07:02:40;;;;;;;10.15;2.88;;;27.20;61.60;;;;;;5048873;28;20357;-66
2022/07/20 07:05:08;;;;;;;9.43;2.92;;;27.30;61.30;;;;;;5047574;28;20071;-66
2022/07/20 07:07:33;;;;;;;10.98;2.95;;;27.30;61.40;;;;;;5047597;28;20049;-66
2022/07/20 07:09:59;;;;;;;8.15;2.72;;;27.30;61.10;;;;;;5051380;28;20036;-66
2022/07/20 07:12:25;;;;;;;7.93;3.25;;;27.30;60.90;;;;;;5051506;28;20029;-65
2022/07/20 07:14:51;;;;;;;8.32;3.17;;;27.30;60.60;;;;;;5051290;28;20048;-66
2022/07/20 07:17:17;;;;;;;10.32;2.95;;;27.20;60.50;;;;;;5052255;28;20036;-63
2022/07/20 07:19:43;;;;;;;10.48;2.92;;;27.20;60.80;;;;;;5050135;28;20044;-63
2022/07/20 07:22:09;;;;;;;14.38;3.33;;;27.30;60.80;;;;;;5052344;28;20112;-64
2022/07/20 07:24:35;;;;;;;5.75;3.13;;;27.20;60.80;;;;;;5052160;28;20602;-64
2022/07/20 07:27:01;;;;;;;7.28;3.40;;;27.20;61.30;;;;;;5050822;28;20061;-64
2022/07/20 07:29:27;;;;;;;7.30;3.42;;;27.20;61.00;;;;;;5024308;28;20031;-63
2022/07/20 07:31:58;;;;;;;6.75;2.95;;;27.20;60.80;;;;;;5050260;28;20036;-65
2022/07/20 07:34:25;;;;;;;9.43;3.83;;;27.20;61.00;;;;;;5051674;28;20039;-63
2022/07/20 07:36:51;;;;;;;5.75;3.00;;;27.20;61.30;;;;;;5039049;28;20101;-63
2022/07/20 07:39:17;;;;;;;5.18;3.00;;;27.20;61.40;;;;;;5046806;28;20045;-63
2022/07/20 07:41:43;;;;;;;7.68;3.58;;;27.20;61.60;;;;;;5052980;28;20017;-63
2022/07/20 07:44:08;;;;;;;5.75;2.88;;;27.20;61.70;;;;;;5051358;28;20422;-64
2022/07/20 07:46:34;;;;;;;8.65;2.97;;;27.20;61.70;;;;;;5040889;28;20075;-63
2022/07/20 07:49:00;;;;;;;10.07;3.38;;;27.30;62.10;;;;;;5051830;28;20029;-63
2022/07/20 07:51:25;;;;;;;10.77;2.22;;;27.30;61.80;;;;;;5050923;28;20083;-63
2022/07/20 07:53:51;;;;;;;8.52;2.53;;;27.30;62.00;;;;;;5050181;28;20032;-63
2022/07/20 07:56:17;;;;;;;7.00;2.83;;;27.30;62.10;;;;;;5051765;28;20021;-63
2022/07/20 07:58:42;;;;;;;8.60;3.50;;;27.30;62.00;;;;;;5051624;28;20033;-63
2022/07/20 08:01:08;;;;;;;7.43;2.65;;;27.40;62.30;;;;;;5052116;28;20039;-63
2022/07/20 08:03:34;;;;;;;6.50;3.17;;;27.30;62.30;;;;;;5048697;28;20052;-63
2022/07/20 08:06:00;;;;;;;6.97;3.45;;;27.40;62.80;;;;;;5048737;28;20051;-63
2022/07/20 08:08:26;;;;;;;11.10;3.42;;;27.40;62.90;;;;;;5049918;28;20145;-63
2022/07/20 08:10:51;;;;;;;5.20;2.65;;;27.40;62.80;;;;;;5050832;28;20460;-63
2022/07/20 08:13:17;;;;;;;2.95;2.05;;;27.40;62.30;;;;;;5049583;28;20036;-64
2022/07/20 08:15:43;;;;;;;5.00;2.58;;;27.40;61.70;;;;;;5050180;28;20028;-64
2022/07/20 08:18:09;;;;;;;4.63;2.83;;;27.40;61.40;;;;;;5050367;28;20074;-64
2022/07/20 08:20:35;;;;;;;5.85;2.15;;;27.30;61.30;;;;;;5050991;28;20483;-63
2022/07/20 08:23:00;;;;;;;5.47;2.58;;;27.30;61.40;;;;;;5050804;28;20029;-63
2022/07/20 08:25:26;;;;;;;7.93;2.17;;;27.30;61.50;;;;;;5050804;28;20094;-63
2022/07/20 08:27:52;;;;;;;6.97;2.72;;;27.30;62.30;;;;;;5051199;28;20040;-63
2022/07/20 08:30:18;;;;;;;8.93;3.50;;;27.30;62.20;;;;;;5048242;28;20040;-63
2022/07/20 08:32:44;;;;;;;10.52;4.32;;;27.30;62.40;;;;;;5049080;28;20155;-63
2022/07/20 08:35:10;;;;;;;14.80;2.40;;;27.40;63.10;;;;;;5052012;28;20104;-63
2022/07/20 08:37:38;;;;;;;11.98;4.35;;;27.40;63.40;;;;;;5037076;28;20034;-63
2022/07/20 08:40:04;;;;;;;9.73;3.50;;;27.40;64.10;;;;;;5038863;28;20040;-63
2022/07/20 08:42:30;;;;;;;5.22;3.22;;;27.40;64.10;;;;;;5047089;28;20029;-63
2022/07/20 08:44:56;;;;;;;8.02;4.50;;;27.40;64.80;;;;;;5043726;28;20358;-63
2022/07/20 08:47:28;;;;;;;7.45;3.78;;;27.50;65.10;;;;;;5045463;28;20472;-63
2022/07/20 08:49:54;;;;;;;6.93;4.10;;;27.50;65.30;;;;;;5038520;28;20041;-64
2022/07/20 08:52:19;;;;;;;11.27;4.60;;;27.50;65.50;;;;;;5049338;28;20032;-63
2022/07/20 08:54:45;;;;;;;5.15;2.45;;;27.60;66.00;;;;;;5041116;28;20833;-64
2022/07/20 08:57:16;;;;;;;3.75;2.10;;;27.60;66.40;;;;;;5045564;28;20735;-64
2022/07/20 08:59:43;;;;;;;6.32;2.65;;;27.60;67.00;;;;;;5048733;28;20033;-64
2022/07/20 09:02:11;;;;;;;13.73;2.75;;;27.60;67.30;;;;;;5049352;28;20415;-64
2022/07/20 09:04:57;;;;;;;19.27;6.75;;;27.60;68.10;;;;;;5049685;28;20043;-64
2022/07/20 09:07:43;;;;;;;14.20;5.15;;;27.60;69.40;;;;;;5048484;28;20049;-64
2022/07/20 09:10:17;;;;;;;5.90;2.88;;;27.70;69.80;;;;;;5043640;28;20021;-64
2022/07/20 09:12:59;;;;;;;11.65;5.43;;;27.70;70.10;;;;;;5046901;28;20044;-64
2022/07/20 09:15:32;;;;;;;16.65;6.00;;;27.80;70.90;;;;;;5046772;28;20431;-63
2022/07/20 09:18:01;;;;;;;;;;;27.80;71.80;;;;;;5048643;28;20384;-64
2022/07/20 09:20:29;;;;;;;17.55;4.38;;;27.90;70.90;;;;;;5044741;28;20364;-64
2022/07/20 09:23:13;;;;;;;12.50;5.78;;;27.90;71.70;;;;;;5048941;28;20488;-64
2022/07/20 09:25:55;;;;;;;17.08;5.30;;;27.90;72.20;;;;;;5046619;28;20033;-63
2022/07/20 09:28:21;;;;;;;10.32;5.18;;;27.90;72.30;;;;;;5044102;28;20235;-63
2022/07/20 09:30:56;;;;;;;16.85;6.75;;;28.00;72.60;;;;;;5047183;28;20104;-64
2022/07/20 09:33:30;;;;;;;18.05;6.75;;;28.00;72.80;;;;;;5047982;28;20037;-63
2022/07/20 09:35:57;;;;;;;14.35;7.00;;;28.10;72.70;;;;;;5049230;28;20152;-64
2022/07/20 09:38:38;;;;;;;15.18;7.45;;;28.20;73.00;;;;;;5050640;28;20032;-64
2022/07/20 09:41:19;;;;;;;16.42;6.07;;;28.20;73.70;;;;;;5052435;28;20132;-64
2022/07/20 09:43:45;;;;;;;13.60;5.75;;;28.30;74.40;;;;;;5051403;28;20033;-64
2022/07/20 09:46:14;;;;;;;17.02;8.70;;;28.30;74.50;;;;;;5051986;28;20033;-64
2022/07/20 09:48:41;;;;;;;14.18;7.88;;;28.30;75.10;;;;;;5051760;28;20488;-64
2022/07/20 09:51:38;;;;;;;12.63;6.03;;;28.30;75.30;;;;;;5049434;28;20029;-64
2022/07/20 09:54:10;;;;;;;8.85;4.82;;;28.40;75.20;;;;;;5036998;28;20037;-64
2022/07/20 09:56:41;;;;;;;13.30;7.03;;;28.40;75.00;;;;;;5051701;28;20028;-64
2022/07/20 09:59:11;;;;;;;15.02;5.15;;;28.40;75.50;;;;;;5046925;28;20039;-64
2022/07/20 10:01:43;;;;;;;9.98;5.90;;;28.50;75.50;;;;;;5051430;28;20468;-63
2022/07/20 10:04:11;;;;;;;15.60;8.17;;;28.50;75.70;;;;;;5052051;28;20082;-63
2022/07/20 10:06:40;;;;;;;13.23;7.53;;;28.60;75.90;;;;;;5049036;28;20028;-63
2022/07/20 10:09:07;;;;;;;18.33;8.63;;;28.60;75.90;;;;;;5034646;28;20099;-63
2022/07/20 10:11:33;;;;;;;16.58;8.63;;;28.60;76.00;;;;;;5048521;28;20037;-63
2022/07/20 10:14:01;;;;;;;12.35;6.18;;;28.70;75.90;;;;;;5052964;28;20036;-63
2022/07/20 10:16:34;;;;;;;12.27;7.28;;;28.70;75.60;;;;;;5050830;28;20116;-63
2022/07/20 10:19:00;;;;;;;22.27;5.75;;;28.70;75.60;;;;;;5045821;28;20040;-63
2022/07/20 10:21:47;;;;;;;22.42;10.02;;;28.80;75.50;;;;;;5051796;28;20248;-63
2022/07/20 10:24:29;;;;;;;16.90;7.53;;;28.80;74.50;;;;;;5035632;28;20468;-63
2022/07/20 10:27:09;;;;;;;23.75;6.82;;;28.90;73.40;;;;;;5052992;28;20033;-63
2022/07/20 10:29:49;;;;;;;15.57;7.95;;;28.90;73.20;;;;;;5052108;28;20040;-64
2022/07/20 10:32:20;;;;;;;14.40;7.38;;;29.00;73.20;;;;;;5045909;28;20025;-63
2022/07/20 10:34:49;;;;;;;13.98;7.20;;;28.90;73.00;;;;;;5047680;28;20122;-64
2022/07/20 10:37:23;;;;;;;11.50;4.72;;;29.00;71.70;;;;;;5046958;28;20127;-63
2022/07/20 10:40:02;;;;;;;15.32;4.90;;;28.90;70.70;;;;;;5050347;28;20025;-63
2022/07/20 10:42:31;;;;;;;17.98;7.35;;;29.00;70.30;;;;;;5049657;28;20032;-63
2022/07/20 10:45:22;;;;;;;12.73;6.18;;;29.00;70.60;;;;;;5049460;28;20029;-64
2022/07/20 10:48:12;;;;;;;15.10;8.27;;;29.00;71.30;;;;;;5047490;28;20041;-64
2022/07/20 10:50:55;;;;;;;14.05;6.30;;;29.10;70.70;;;;;;5047822;28;20102;-64
2022/07/20 10:53:23;;;;;;;15.50;5.32;;;29.10;70.50;;;;;;5048975;28;20438;-64
2022/07/20 10:55:55;;;;;;;16.73;7.65;;;29.20;70.00;;;;;;5046683;28;20528;-64
2022/07/20 10:58:31;;;;;;;13.10;5.30;;;29.20;69.90;;;;;;5050047;28;20029;-64
2022/07/20 11:01:04;;;;;;;9.88;4.47;;;29.20;68.90;;;;;;5050616;28;20039;-64
2022/07/20 11:03:34;;;;;;;13.80;5.13;;;29.20;67.40;;;;;;5051584;28;20067;-64
2022/07/20 11:06:10;;;;;;;11.30;5.43;;;29.30;66.60;;;;;;5049426;28;20161;-64
2022/07/20 11:08:38;;;;;;;9.90;5.70;;;29.30;67.20;;;;;;5047992;28;20072;-65
2022/07/20 11:11:05;;;;;;;12.70;5.18;;;29.30;66.00;;;;;;5048998;28;20057;-64
2022/07/20 11:13:31;;;;;;;9.07;4.10;;;29.30;65.50;;;;;;5048262;28;20108;-64
2022/07/20 11:16:01;;;;;;;13.68;6.22;;;29.30;65.30;;;;;;5049422;28;20028;-64
2022/07/20 11:18:29;;;;;;;9.70;6.65;;;29.40;64.10;;;;;;5050185;28;20044;-64
2022/07/20 11:21:00;;;;;;;20.65;10.02;;;29.40;64.60;;;;;;5047125;28;20276;-63
2022/07/20 11:23:28;;;;;;;18.55;7.85;;;29.50;63.90;;;;;;5050628;28;20031;-64
2022/07/20 11:25:59;;;;;;;14.60;7.75;;;29.50;64.20;;;;;;5052049;28;20033;-64
2022/07/20 11:28:32;;;;;;;17.05;7.80;;;29.60;64.40;;;;;;5051479;28;20041;-63
2022/07/20 11:30:59;;;;;;;10.57;5.32;;;29.70;64.30;;;;;;5049713;28;20032;-63
2022/07/20 11:33:35;;;;;;;19.77;8.10;;;29.70;64.10;;;;;;5037725;28;20380;-63
2022/07/20 11:36:08;;;;;;;13.95;7.22;;;29.80;64.30;;;;;;5046525;28;20036;-64
2022/07/20 11:38:45;;;;;;;10.45;5.60;;;29.80;64.80;;;;;;5049472;28;20044;-64
2022/07/20 11:41:13;;;;;;;5.85;4.15;;;29.90;64.50;;;;;;5048931;28;20111;-64
2022/07/20 11:43:40;;;;;;;15.38;6.60;;;29.90;64.20;;;;;;5049213;28;20029;-63
2022/07/20 11:46:08;;;;;;;9.13;4.80;;;29.90;63.40;;;;;;5040758;28;20021;-63
2022/07/20 11:48:34;;;;;;;13.60;7.50;;;30.00;63.40;;;;;;5044609;28;20056;-63
2022/07/20 11:51:00;;;;;;;8.02;3.75;;;30.00;62.90;;;;;;5052022;28;20028;-64
2022/07/20 11:53:28;;;;;;;14.27;7.15;;;30.00;62.80;;;;;;5042625;28;20519;-64
2022/07/20 11:55:55;;;;;;;11.68;5.68;;;30.00;61.80;;;;;;5045559;28;20034;-63
2022/07/20 11:58:31;;;;;;;16.27;8.07;;;30.10;62.50;;;;;;5033713;28;20476;-63
2022/07/20 12:00:57;;;;;;;15.82;8.02;;;30.10;62.10;;;;;;5038423;28;20045;-64
2022/07/20 12:03:28;;;;;;;11.93;7.28;;;30.10;62.20;;;;;;5053626;28;20036;-63
2022/07/20 12:05:55;;;;;;;12.93;6.53;;;30.20;62.80;;;;;;5047227;28;20041;-63
2022/07/20 12:08:21;;;;;;;9.60;5.10;;;30.20;62.80;;;;;;5045657;28;20045;-64
2022/07/20 12:10:47;;;;;;;7.18;4.70;;;30.20;62.90;;;;;;5039714;28;20032;-63
2022/07/20 12:13:13;;;;;;;11.43;4.03;;;30.30;62.90;;;;;;5039784;28;20416;-64
2022/07/20 12:15:39;;;;;;;7.97;4.35;;;30.20;62.40;;;;;;5045860;28;20083;-64
2022/07/20 12:18:05;;;;;;;5.55;3.28;;;30.20;61.80;;;;;;5047097;28;20090;-64
2022/07/20 12:20:31;;;;;;;7.93;4.95;;;30.30;61.90;;;;;;5052320;28;20120;-64
2022/07/20 12:23:04;;;;;;;6.72;3.92;;;30.30;62.00;;;;;;5051353;28;20063;-63
2022/07/20 12:25:40;;;;;;;16.73;5.05;;;30.30;61.10;;;;;;5041495;28;20111;-64
2022/07/20 12:28:06;;;;;;;12.80;5.28;;;30.30;61.60;;;;;;5040788;28;20037;-64
2022/07/20 12:30:36;;;;;;;15.55;6.25;;;30.40;62.50;;;;;;5052090;28;20158;-63
2022/07/20 12:33:11;;;;;;;10.95;4.95;;;30.40;62.60;;;;;;5039179;28;20037;-63
2022/07/20 12:35:39;;;;;;;6.00;2.92;;;30.40;62.80;;;;;;5050831;28;20059;-64
2022/07/20 12:38:05;;;;;;;3.70;2.58;;;30.50;61.10;;;;;;5032992;28;20025;-64
2022/07/20 12:40:45;;;;;;;9.40;3.53;;;30.50;60.70;;;;;;5045779;28;20041;-63
2022/07/20 12:43:35;;;;;;;4.35;2.80;;;30.60;61.00;;;;;;5051498;28;20060;-64
2022/07/20 12:46:07;;;;;;;8.65;4.55;;;30.50;61.40;;;;;;5037690;28;20095;-64
2022/07/20 12:48:41;;;;;;;6.90;2.85;;;30.60;60.90;;;;;;5053042;28;20041;-64
2022/07/20 12:51:09;;;;;;;8.35;4.35;;;30.60;61.00;;;;;;5047719;28;20112;-64